Time;durP1;ratioP1;P1;durP2;ratioP2;P2;SDS_P1;SDS_P2;PMS_P1;PMS_P2;Temp;Humidity;BMP_temperature;BMP_pressure;BME280_temperature;BME280_humidity;BME280_pressure;Samples;Min_cycle;Max_cycle;Signal;HPM_P1;HPM_P2
2023/03/02 00:01:36;;;;;;;18.20;12.33;;;;;;;;;;5070816;28;20234;-52
2023/03/02 00:04:03;;;;;;;17.23;10.67;;;;;;;;;;5071314;28;20234;-51
2023/03/02 00:06:30;;;;;;;15.97;11.93;;;;;;;;;;5079101;28;20277;-52
2023/03/02 00:08:59;;;;;;;12.40;10.53;;;;;;;;;;5078295;28;20227;-52
2023/03/02 00:11:25;;;;;;;20.70;12.63;;;;;;;;;;5081164;28;20234;-51
2023/03/02 00:13:53;;;;;;;21.20;12.40;;;;;;;;;;5079332;28;20294;-52
2023/03/02 00:16:20;;;;;;;19.30;12.00;;;;;;;;;;5075654;28;20393;-52
2023/03/02 00:18:46;;;;;;;20.37;13.47;;;;;;;;;;5070136;28;20931;-52
2023/03/02 00:21:12;;;;;;;17.93;12.83;;;;;;;;;;5076204;28;20246;-51
2023/03/02 00:23:39;;;;;;;20.87;14.13;;;;;;;;;;5069630;28;20321;-53
2023/03/02 00:26:06;;;;;;;17.43;12.47;;;;;;;;;;5069091;28;20237;-52
2023/03/02 00:28:32;;;;;;;19.17;13.00;;;;;;;;;;5065064;28;20250;-51
2023/03/02 00:31:00;;;;;;;21.83;13.43;;;;;;;;;;5064905;28;20240;-53
2023/03/02 00:33:26;;;;;;;21.27;13.93;;;;;;;;;;5064661;28;20336;-52
2023/03/02 00:35:53;;;;;;;19.53;13.03;;;;;;;;;;5061000;28;20282;-52
2023/03/02 00:38:19;;;;;;;22.67;14.97;;;;;;;;;;5059107;28;20246;-51
2023/03/02 00:40:46;;;;;;;19.07;15.23;;;;;;;;;;5062084;28;20227;-51
2023/03/02 00:43:12;;;;;;;20.20;15.17;;;;;;;;;;5059357;28;20658;-52
2023/03/02 00:45:39;;;;;;;20.53;14.30;;;;;;;;;;5065438;28;20245;-51
2023/03/02 00:48:07;;;;;;;17.93;13.57;;;;;;;;;;5063486;28;20260;-52
2023/03/02 00:50:33;;;;;;;21.27;14.70;;;;;;;;;;5063427;28;20239;-51
2023/03/02 00:53:00;;;;;;;17.33;13.53;;;;;;;;;;5062424;28;20244;-52
2023/03/02 00:55:26;;;;;;;18.60;13.83;;;;;;;;;;5064273;28;20242;-52
2023/03/02 00:57:53;;;;;;;15.83;14.17;;;;;;;;;;5065133;28;20349;-51
2023/03/02 01:00:20;;;;;;;18.17;14.93;;;;;;;;;;5059828;28;20305;-51
2023/03/02 01:02:46;;;;;;;17.03;13.57;;;;;;;;;;5067372;28;20238;-52
2023/03/02 01:05:14;;;;;;;18.77;14.83;;;;;;;;;;5067748;28;20294;-51
2023/03/02 01:07:41;;;;;;;19.87;14.30;;;;;;;;;;5065628;28;20234;-52
2023/03/02 01:10:08;;;;;;;21.97;13.20;;;;;;;;;;5066734;28;20301;-51
2023/03/02 01:12:35;;;;;;;22.60;14.97;;;;;;;;;;5065232;28;20393;-51
2023/03/02 01:15:01;;;;;;;17.97;13.63;;;;;;;;;;5064022;28;20329;-58
2023/03/02 01:17:28;;;;;;;17.23;14.17;;;;;;;;;;5065635;28;20237;-51
2023/03/02 01:19:55;;;;;;;20.17;13.90;;;;;;;;;;5063516;28;20324;-52
2023/03/02 01:22:23;;;;;;;17.70;14.43;;;;;;;;;;5062567;28;20287;-52
2023/03/02 01:24:50;;;;;;;20.73;14.13;;;;;;;;;;5063270;28;20237;-51
2023/03/02 01:27:17;;;;;;;16.60;13.77;;;;;;;;;;5061584;28;20643;-53
2023/03/02 01:29:43;;;;;;;19.27;14.30;;;;;;;;;;5064385;28;20809;-51
2023/03/02 01:32:09;;;;;;;18.00;14.97;;;;;;;;;;5063935;28;20746;-53
2023/03/02 01:34:36;;;;;;;22.03;14.33;;;;;;;;;;5061725;28;20671;-51
2023/03/02 01:37:02;;;;;;;16.00;12.57;;;;;;;;;;5062886;28;20265;-52
2023/03/02 01:39:30;;;;;;;19.20;13.73;;;;;;;;;;5059457;28;20264;-53
2023/03/02 01:41:56;;;;;;;17.73;12.83;;;;;;;;;;5057650;28;20237;-51
2023/03/02 01:44:46;;;;;;;19.90;12.70;;;;;;;;;;5058783;28;20331;-52
2023/03/02 01:47:16;;;;;;;18.50;13.57;;;;;;;;;;5044901;28;20254;-52
2023/03/02 01:49:44;;;;;;;17.77;13.87;;;;;;;;;;5057901;28;20226;-53
2023/03/02 01:52:11;;;;;;;18.67;13.37;;;;;;;;;;5060754;28;20722;-51
2023/03/02 01:54:39;;;;;;;20.20;14.10;;;;;;;;;;5060629;28;20241;-52
2023/03/02 01:57:06;;;;;;;18.10;13.57;;;;;;;;;;5059590;28;20817;-51
2023/03/02 01:59:33;;;;;;;15.77;12.80;;;;;;;;;;5062152;28;20234;-52
2023/03/02 02:02:01;;;;;;;20.03;14.53;;;;;;;;;;5060384;28;20768;-52
2023/03/02 02:04:29;;;;;;;17.33;12.33;;;;;;;;;;5069582;28;20287;-51
2023/03/02 02:06:58;;;;;;;15.97;11.50;;;;;;;;;;5063272;28;20611;-51
2023/03/02 02:09:25;;;;;;;20.30;12.00;;;;;;;;;;5064641;28;20234;-53
2023/03/02 02:11:52;;;;;;;18.17;12.30;;;;;;;;;;5067298;28;20245;-52
2023/03/02 02:14:19;;;;;;;19.10;12.37;;;;;;;;;;5062967;28;20568;-51
2023/03/02 02:16:45;;;;;;;19.27;11.50;;;;;;;;;;5061679;28;20230;-51
2023/03/02 02:19:15;;;;;;;14.60;11.03;;;;;;;;;;5062460;28;20263;-51
2023/03/02 02:21:41;;;;;;;17.90;12.77;;;;;;;;;;5062239;28;20238;-52
2023/03/02 02:24:09;;;;;;;17.90;12.93;;;;;;;;;;5062826;28;20313;-52
2023/03/02 02:26:40;;;;;;;14.43;11.20;;;;;;;;;;5060319;28;20220;-51
2023/03/02 02:29:12;;;;;;;15.93;11.63;;;;;;;;;;5061933;28;20258;-52
2023/03/02 02:31:40;;;;;;;16.50;12.23;;;;;;;;;;5061546;28;20370;-52
2023/03/02 02:34:11;;;;;;;17.20;11.47;;;;;;;;;;5063269;28;20778;-51
2023/03/02 02:36:46;;;;;;;13.50;10.90;;;;;;;;;;5060645;28;20239;-52
2023/03/02 02:39:15;;;;;;;22.83;13.33;;;;;;;;;;5059000;28;20225;-52
2023/03/02 02:41:45;;;;;;;15.97;13.03;;;;;;;;;;5059636;28;20226;-51
2023/03/02 02:44:14;;;;;;;11.83;10.43;;;;;;;;;;5066936;28;20227;-51
2023/03/02 02:46:40;;;;;;;19.13;12.03;;;;;;;;;;5065697;28;20298;-52
2023/03/02 02:49:24;;;;;;;15.70;12.33;;;;;;;;;;5060174;28;20237;-51
2023/03/02 02:51:50;;;;;;;16.40;11.93;;;;;;;;;;5065384;28;20245;-52
2023/03/02 02:54:18;;;;;;;16.87;11.43;;;;;;;;;;5058869;28;20245;-52
2023/03/02 02:56:46;;;;;;;12.97;11.23;;;;;;;;;;5063070;28;20326;-51
2023/03/02 02:59:16;;;;;;;16.20;12.20;;;;;;;;;;5066782;28;20225;-51
2023/03/02 03:01:43;;;;;;;17.33;11.07;;;;;;;;;;5066965;28;20233;-50
2023/03/02 03:04:13;;;;;;;15.00;11.33;;;;;;;;;;5065680;28;20766;-51
2023/03/02 03:06:49;;;;;;;13.03;10.20;;;;;;;;;;5066371;28;20230;-51
2023/03/02 03:09:15;;;;;;;16.47;11.60;;;;;;;;;;5061030;28;20241;-51
2023/03/02 03:11:43;;;;;;;16.73;11.63;;;;;;;;;;5065026;28;20317;-51
2023/03/02 03:14:12;;;;;;;16.70;11.53;;;;;;;;;;5061489;28;20240;-52
2023/03/02 03:16:39;;;;;;;15.80;11.17;;;;;;;;;;5060902;28;20238;-52
2023/03/02 03:19:09;;;;;;;14.33;10.60;;;;;;;;;;5051084;28;21051;-52
2023/03/02 03:21:36;;;;;;;15.47;11.23;;;;;;;;;;5063504;28;20583;-52
2023/03/02 03:24:03;;;;;;;13.80;11.30;;;;;;;;;;5064542;28;20241;-51
2023/03/02 03:26:29;;;;;;;14.13;10.70;;;;;;;;;;5058742;28;20577;-52
2023/03/02 03:28:57;;;;;;;15.80;11.70;;;;;;;;;;5062076;28;20234;-51
2023/03/02 03:31:26;;;;;;;15.40;10.80;;;;;;;;;;5061632;28;20241;-51
2023/03/02 03:33:53;;;;;;;15.20;11.13;;;;;;;;;;5066831;28;20235;-50
2023/03/02 03:36:19;;;;;;;16.40;11.50;;;;;;;;;;5062656;28;20230;-52
2023/03/02 03:38:47;;;;;;;17.57;11.27;;;;;;;;;;5063213;28;20241;-52
2023/03/02 03:41:14;;;;;;;16.80;10.53;;;;;;;;;;5066014;28;20231;-52
2023/03/02 03:43:40;;;;;;;18.03;12.33;;;;;;;;;;5062335;28;20226;-51
2023/03/02 03:46:07;;;;;;;15.87;12.17;;;;;;;;;;5065479;28;20246;-51
2023/03/02 03:48:35;;;;;;;18.03;11.47;;;;;;;;;;5062105;28;20270;-51
2023/03/02 03:51:02;;;;;;;13.33;10.70;;;;;;;;;;5062663;28;20618;-51
2023/03/02 03:53:29;;;;;;;13.67;11.47;;;;;;;;;;5058264;28;20230;-52
2023/03/02 03:55:56;;;;;;;15.30;11.33;;;;;;;;;;5066710;28;20290;-52
2023/03/02 03:58:23;;;;;;;16.90;11.77;;;;;;;;;;5062116;28;20802;-51
2023/03/02 04:00:50;;;;;;;15.03;11.13;;;;;;;;;;5065918;28;20772;-52
2023/03/02 04:03:17;;;;;;;15.33;11.53;;;;;;;;;;5062361;28;20245;-55
2023/03/02 04:05:45;;;;;;;14.73;11.17;;;;;;;;;;5066251;28;20306;-56
2023/03/02 04:08:12;;;;;;;14.80;10.40;;;;;;;;;;5057096;28;20245;-51
2023/03/02 04:10:38;;;;;;;14.67;11.23;;;;;;;;;;5067304;28;20230;-52
2023/03/02 04:13:05;;;;;;;12.47;10.83;;;;;;;;;;5062984;28;20237;-51
2023/03/02 04:15:32;;;;;;;15.47;11.17;;;;;;;;;;5067261;28;20292;-51
2023/03/02 04:17:58;;;;;;;16.13;11.30;;;;;;;;;;5062416;28;20242;-50
2023/03/02 04:20:25;;;;;;;16.73;11.27;;;;;;;;;;5061006;28;20837;-53
2023/03/02 04:22:54;;;;;;;15.03;12.07;;;;;;;;;;5061877;28;20257;-53
2023/03/02 04:25:22;;;;;;;14.27;11.07;;;;;;;;;;5063983;28;20304;-51
2023/03/02 04:27:49;;;;;;;14.73;11.10;;;;;;;;;;5061280;28;20320;-51
2023/03/02 04:30:16;;;;;;;12.73;10.30;;;;;;;;;;5061401;28;20239;-51
2023/03/02 04:32:43;;;;;;;15.77;11.93;;;;;;;;;;5063751;28;20235;-52
2023/03/02 04:35:10;;;;;;;16.97;12.23;;;;;;;;;;5063158;28;20227;-52
2023/03/02 04:37:37;;;;;;;14.27;10.83;;;;;;;;;;5062905;28;20234;-52
2023/03/02 04:40:05;;;;;;;15.23;12.97;;;;;;;;;;5061896;28;20230;-52
2023/03/02 04:42:32;;;;;;;21.33;12.87;;;;;;;;;;5062046;28;20719;-52
2023/03/02 04:44:58;;;;;;;17.83;12.63;;;;;;;;;;5063363;28;20659;-52
2023/03/02 04:47:25;;;;;;;19.73;12.93;;;;;;;;;;5064115;28;20256;-51
2023/03/02 04:49:55;;;;;;;17.80;11.30;;;;;;;;;;5059456;28;20238;-52
2023/03/02 04:52:21;;;;;;;18.00;12.67;;;;;;;;;;5060138;28;20241;-52
2023/03/02 04:54:48;;;;;;;16.27;11.40;;;;;;;;;;5058649;28;20752;-51
2023/03/02 04:57:16;;;;;;;16.27;11.40;;;;;;;;;;5063922;28;20267;-52
2023/03/02 04:59:42;;;;;;;17.63;12.53;;;;;;;;;;5063044;28;20222;-51
2023/03/02 05:02:10;;;;;;;13.60;11.30;;;;;;;;;;5063653;28;20704;-52
2023/03/02 05:04:36;;;;;;;14.57;11.80;;;;;;;;;;5063048;28;20279;-52
2023/03/02 05:07:03;;;;;;;18.03;13.20;;;;;;;;;;5063427;28;20230;-50
2023/03/02 05:09:29;;;;;;;15.03;11.67;;;;;;;;;;5062560;28;20234;-55
2023/03/02 05:11:56;;;;;;;17.47;11.67;;;;;;;;;;5063443;28;20236;-52
2023/03/02 05:14:25;;;;;;;17.47;12.40;;;;;;;;;;5064595;28;20237;-52
2023/03/02 05:16:52;;;;;;;16.77;12.10;;;;;;;;;;5071215;28;20262;-52
2023/03/02 05:19:18;;;;;;;16.90;12.37;;;;;;;;;;5064201;28;20238;-52
2023/03/02 05:21:45;;;;;;;14.93;11.83;;;;;;;;;;5068468;28;20261;-51
2023/03/02 05:24:12;;;;;;;18.87;13.90;;;;;;;;;;5071867;28;20234;-53
2023/03/02 05:26:38;;;;;;;24.20;14.17;;;;;;;;;;5076410;28;20233;-52
2023/03/02 05:29:05;;;;;;;20.63;15.03;;;;;;;;;;5072467;28;20227;-51
2023/03/02 05:31:34;;;;;;;19.90;13.60;;;;;;;;;;5064095;28;20238;-51
2023/03/02 05:34:01;;;;;;;14.80;12.77;;;;;;;;;;5071454;28;20238;-51
2023/03/02 05:36:28;;;;;;;18.43;13.30;;;;;;;;;;5069526;28;20237;-53
2023/03/02 05:38:54;;;;;;;16.20;13.23;;;;;;;;;;5067439;28;20235;-52
2023/03/02 05:41:21;;;;;;;18.27;13.50;;;;;;;;;;5063805;28;20246;-55
2023/03/02 05:43:47;;;;;;;22.00;13.47;;;;;;;;;;5072291;28;20222;-52
2023/03/02 05:46:16;;;;;;;17.83;12.83;;;;;;;;;;5068623;28;20322;-53
2023/03/02 05:48:44;;;;;;;19.27;13.87;;;;;;;;;;5064725;28;20251;-51
2023/03/02 05:51:10;;;;;;;16.90;12.87;;;;;;;;;;5068606;28;20903;-57
2023/03/02 05:53:37;;;;;;;23.43;14.57;;;;;;;;;;5067027;28;20241;-52
2023/03/02 05:56:04;;;;;;;17.63;12.70;;;;;;;;;;5070249;28;20229;-55
2023/03/02 05:58:30;;;;;;;19.23;14.13;;;;;;;;;;5070872;28;20236;-53
2023/03/02 06:00:56;;;;;;;15.73;13.20;;;;;;;;;;5068282;28;20324;-51
2023/03/02 06:03:23;;;;;;;18.83;14.53;;;;;;;;;;5068947;28;20230;-52
2023/03/02 06:05:51;;;;;;;22.13;15.03;;;;;;;;;;5069621;28;20253;-52
2023/03/02 06:08:18;;;;;;;20.13;14.17;;;;;;;;;;5067571;28;20291;-53
2023/03/02 06:10:44;;;;;;;21.90;15.23;;;;;;;;;;5071295;28;20684;-52
2023/03/02 06:13:11;;;;;;;25.90;16.23;;;;;;;;;;5067641;28;20237;-52
2023/03/02 06:15:39;;;;;;;26.80;16.97;;;;;;;;;;5069898;28;20325;-55
2023/03/02 06:18:05;;;;;;;21.80;16.27;;;;;;;;;;5067597;28;20252;-52
2023/03/02 06:20:32;;;;;;;33.80;18.23;;;;;;;;;;5066696;28;20548;-51
2023/03/02 06:23:00;;;;;;;21.50;15.83;;;;;;;;;;5060447;28;20247;-52
2023/03/02 06:25:27;;;;;;;25.30;15.97;;;;;;;;;;5064900;28;20237;-51
2023/03/02 06:27:53;;;;;;;29.80;18.17;;;;;;;;;;5063285;28;20325;-51
2023/03/02 06:30:21;;;;;;;26.07;17.93;;;;;;;;;;5061488;28;20298;-53
2023/03/02 06:32:48;;;;;;;27.27;18.50;;;;;;;;;;5063553;28;20259;-52
2023/03/02 06:35:14;;;;;;;28.83;18.53;;;;;;;;;;5061176;28;20234;-51
2023/03/02 06:37:41;;;;;;;27.73;19.17;;;;;;;;;;5062782;28;20241;-51
2023/03/02 06:40:10;;;;;;;33.33;18.53;;;;;;;;;;5065373;28;20659;-52
2023/03/02 06:42:37;;;;;;;32.47;20.97;;;;;;;;;;5066697;28;20284;-52
2023/03/02 06:45:04;;;;;;;33.40;19.50;;;;;;;;;;5064337;28;20425;-52
2023/03/02 06:47:32;;;;;;;28.43;18.40;;;;;;;;;;5064327;28;20230;-51
2023/03/02 06:49:58;;;;;;;27.33;17.33;;;;;;;;;;5064457;28;20235;-51
2023/03/02 06:52:26;;;;;;;30.10;18.13;;;;;;;;;;5064541;28;20242;-51
2023/03/02 06:54:52;;;;;;;31.77;18.67;;;;;;;;;;5066162;28;20837;-51
2023/03/02 06:57:20;;;;;;;31.93;18.10;;;;;;;;;;5063144;28;20317;-53
2023/03/02 06:59:47;;;;;;;29.10;18.03;;;;;;;;;;5062213;28;20291;-51
2023/03/02 07:02:13;;;;;;;29.53;18.07;;;;;;;;;;5061173;28;20231;-51
2023/03/02 07:04:40;;;;;;;32.93;19.20;;;;;;;;;;5058546;28;20245;-52
2023/03/02 07:07:06;;;;;;;31.53;16.87;;;;;;;;;;5060853;28;20249;-51
2023/03/02 07:09:33;;;;;;;30.77;17.63;;;;;;;;;;5061672;28;20244;-51
2023/03/02 07:11:59;;;;;;;31.10;18.83;;;;;;;;;;5059364;28;20399;-52
2023/03/02 07:14:27;;;;;;;30.90;18.67;;;;;;;;;;5062488;28;20622;-52
2023/03/02 07:16:56;;;;;;;25.70;16.43;;;;;;;;;;5060922;28;20234;-51
2023/03/02 07:19:22;;;;;;;29.23;18.47;;;;;;;;;;5065105;28;20253;-52
2023/03/02 07:21:49;;;;;;;26.93;17.90;;;;;;;;;;5064852;28;20245;-53
2023/03/02 07:24:15;;;;;;;28.47;18.67;;;;;;;;;;5065940;28;20230;-53
2023/03/02 07:26:42;;;;;;;33.00;17.90;;;;;;;;;;5066897;28;20231;-52
2023/03/02 07:29:08;;;;;;;29.70;18.43;;;;;;;;;;5065154;28;20241;-52
2023/03/02 07:31:36;;;;;;;32.23;17.47;;;;;;;;;;5066244;28;20235;-52
2023/03/02 07:34:03;;;;;;;30.23;18.70;;;;;;;;;;5067127;28;20793;-52
2023/03/02 07:36:29;;;;;;;28.40;17.17;;;;;;;;;;5066272;28;20235;-53
2023/03/02 07:38:56;;;;;;;32.10;17.40;;;;;;;;;;5064346;28;20241;-52
2023/03/02 07:41:22;;;;;;;36.53;20.03;;;;;;;;;;5063396;28;20234;-52
2023/03/02 07:43:49;;;;;;;41.60;19.47;;;;;;;;;;5066735;28;20756;-52
2023/03/02 07:46:16;;;;;;;30.30;19.13;;;;;;;;;;5060797;28;20265;-52
2023/03/02 07:48:44;;;;;;;35.80;19.87;;;;;;;;;;5058475;28;20247;-51
2023/03/02 07:51:10;;;;;;;30.17;17.17;;;;;;;;;;5055897;28;20762;-52
2023/03/02 07:53:37;;;;;;;29.83;17.80;;;;;;;;;;5053646;28;20303;-52
2023/03/02 07:56:06;;;;;;;34.37;18.93;;;;;;;;;;5059743;28;20302;-51
2023/03/02 07:58:33;;;;;;;29.03;18.07;;;;;;;;;;5054596;28;20734;-52
2023/03/02 08:00:59;;;;;;;30.93;17.63;;;;;;;;;;5062763;28;20282;-52
2023/03/02 08:03:26;;;;;;;33.13;18.70;;;;;;;;;;5060988;28;20728;-51
2023/03/02 08:05:54;;;;;;;27.40;17.70;;;;;;;;;;5063145;28;20277;-52
2023/03/02 08:08:20;;;;;;;27.63;17.60;;;;;;;;;;5061566;28;20334;-51
2023/03/02 08:10:47;;;;;;;34.17;20.70;;;;;;;;;;5059174;28;20604;-51
2023/03/02 08:13:13;;;;;;;32.90;19.93;;;;;;;;;;5060078;28;20349;-51
2023/03/02 08:15:40;;;;;;;30.17;18.47;;;;;;;;;;5060807;28;20293;-52
2023/03/02 08:18:06;;;;;;;26.00;18.30;;;;;;;;;;5060874;28;20222;-51
2023/03/02 08:20:33;;;;;;;26.23;16.23;;;;;;;;;;5057060;28;20740;-51
2023/03/02 08:23:01;;;;;;;27.10;18.43;;;;;;;;;;5058457;28;20512;-52
2023/03/02 08:25:27;;;;;;;24.60;16.63;;;;;;;;;;5060328;28;20317;-52
2023/03/02 08:27:54;;;;;;;25.83;17.17;;;;;;;;;;5058624;28;20239;-52
2023/03/02 08:30:21;;;;;;;28.47;18.17;;;;;;;;;;5052156;28;20234;-52
2023/03/02 08:32:47;;;;;;;29.90;18.20;;;;;;;;;;5060447;28;20736;-53
2023/03/02 08:35:14;;;;;;;25.13;18.50;;;;;;;;;;5062148;28;20247;-51
2023/03/02 08:37:40;;;;;;;31.37;18.33;;;;;;;;;;5062950;28;20246;-52
2023/03/02 08:40:09;;;;;;;32.83;19.43;;;;;;;;;;5064507;28;20241;-52
2023/03/02 08:42:36;;;;;;;32.77;19.37;;;;;;;;;;5064338;28;20621;-52
2023/03/02 08:45:03;;;;;;;33.13;18.17;;;;;;;;;;5062152;28;20226;-51
2023/03/02 08:47:29;;;;;;;29.57;17.00;;;;;;;;;;5058813;28;20231;-52
2023/03/02 08:49:56;;;;;;;27.93;17.23;;;;;;;;;;5062507;28;20669;-52
2023/03/02 08:52:22;;;;;;;30.80;18.90;;;;;;;;;;5059955;28;20250;-52
2023/03/02 08:54:48;;;;;;;28.40;17.30;;;;;;;;;;5062558;28;20301;-52
2023/03/02 08:57:16;;;;;;;27.80;16.90;;;;;;;;;;5058939;28;20254;-51
2023/03/02 08:59:43;;;;;;;25.47;17.33;;;;;;;;;;5056416;28;20231;-50
2023/03/02 09:02:10;;;;;;;31.97;18.37;;;;;;;;;;5061102;28;20242;-52
2023/03/02 09:04:37;;;;;;;34.17;20.57;;;;;;;;;;5058199;28;20273;-51
2023/03/02 09:07:04;;;;;;;29.27;19.70;;;;;;;;;;5062059;28;20238;-51
2023/03/02 09:09:30;;;;;;;31.83;18.73;;;;;;;;;;5062468;28;20243;-52
2023/03/02 09:11:57;;;;;;;31.23;21.00;;;;;;;;;;5061595;28;20249;-52
2023/03/02 09:14:26;;;;;;;33.10;19.40;;;;;;;;;;5061556;28;20299;-56
2023/03/02 09:16:53;;;;;;;30.13;19.33;;;;;;;;;;5060404;28;20225;-52
2023/03/02 09:19:20;;;;;;;37.07;20.83;;;;;;;;;;5058183;28;20236;-50
2023/03/02 09:21:46;;;;;;;32.77;19.07;;;;;;;;;;5056310;28;20235;-51
2023/03/02 09:24:13;;;;;;;37.17;21.23;;;;;;;;;;5062137;28;20319;-52
2023/03/02 09:26:39;;;;;;;34.17;21.30;;;;;;;;;;5062788;28;20249;-52
2023/03/02 09:29:06;;;;;;;34.33;21.20;;;;;;;;;;5060989;28;20673;-52
2023/03/02 09:31:34;;;;;;;33.83;19.10;;;;;;;;;;5061036;28;20230;-52
2023/03/02 09:34:01;;;;;;;35.57;20.57;;;;;;;;;;5059703;28;20246;-51
2023/03/02 09:36:27;;;;;;;29.40;18.97;;;;;;;;;;5060622;28;20256;-51
2023/03/02 09:38:54;;;;;;;30.40;20.20;;;;;;;;;;5062024;28;20245;-52
2023/03/02 09:41:48;;;;;;;27.77;18.67;;;;;;;;;;5061369;28;20806;-51
2023/03/02 09:44:23;;;;;;;32.67;18.50;;;;;;;;;;5034391;28;20230;-52
2023/03/02 09:46:52;;;;;;;28.23;19.07;;;;;;;;;;5056198;28;20287;-53
2023/03/02 09:49:27;;;;;;;30.17;18.10;;;;;;;;;;5061647;28;20226;-52
2023/03/02 09:52:02;;;;;;;30.03;19.07;;;;;;;;;;5059418;28;20675;-52
2023/03/02 09:54:28;;;;;;;30.53;18.83;;;;;;;;;;5064555;28;20237;-53
2023/03/02 09:56:56;;;;;;;28.40;17.93;;;;;;;;;;5060228;28;20230;-52
2023/03/02 09:59:24;;;;;;;22.53;17.40;;;;;;;;;;5057321;28;20238;-53
2023/03/02 10:01:54;;;;;;;29.33;18.50;;;;;;;;;;5055474;28;20343;-52
2023/03/02 10:04:24;;;;;;;28.00;18.20;;;;;;;;;;5063394;28;20674;-52
2023/03/02 10:06:55;;;;;;;26.00;15.17;;;;;;;;;;5060799;28;20309;-52
2023/03/02 10:09:21;;;;;;;23.07;15.63;;;;;;;;;;5061477;28;20234;-52
2023/03/02 10:11:53;;;;;;;24.40;16.60;;;;;;;;;;5063166;28;20243;-52
2023/03/02 10:14:22;;;;;;;20.37;14.00;;;;;;;;;;5049848;28;20234;-51
2023/03/02 10:16:49;;;;;;;19.83;15.13;;;;;;;;;;5063435;28;20265;-52
2023/03/02 10:19:20;;;;;;;24.63;16.13;;;;;;;;;;5063872;28;20233;-52
2023/03/02 10:21:49;;;;;;;19.37;13.80;;;;;;;;;;5062510;28;20236;-52
2023/03/02 10:24:20;;;;;;;19.83;14.20;;;;;;;;;;5060769;28;20322;-52
2023/03/02 10:26:49;;;;;;;23.77;14.07;;;;;;;;;;5061668;28;20234;-53
2023/03/02 10:29:31;;;;;;;25.63;15.80;;;;;;;;;;5058858;28;20310;-52
2023/03/02 10:31:59;;;;;;;25.97;15.43;;;;;;;;;;5064464;28;20355;-52
2023/03/02 10:34:29;;;;;;;21.50;15.33;;;;;;;;;;5069940;28;20325;-51
2023/03/02 10:36:55;;;;;;;22.87;14.27;;;;;;;;;;5070331;28;20237;-51
2023/03/02 10:39:21;;;;;;;20.60;14.33;;;;;;;;;;5072353;28;20235;-52
2023/03/02 10:41:50;;;;;;;24.30;16.07;;;;;;;;;;5070183;28;20230;-52
2023/03/02 10:44:26;;;;;;;19.67;13.77;;;;;;;;;;5055545;28;20742;-51
2023/03/02 10:46:53;;;;;;;24.73;16.27;;;;;;;;;;5058486;28;20328;-51
2023/03/02 10:49:23;;;;;;;25.43;16.17;;;;;;;;;;5056921;28;20241;-51
2023/03/02 10:51:55;;;;;;;21.17;13.97;;;;;;;;;;5057568;28;20247;-53
2023/03/02 10:54:22;;;;;;;22.83;15.80;;;;;;;;;;5062248;28;20340;-52
2023/03/02 10:56:50;;;;;;;21.57;15.50;;;;;;;;;;5066112;28;20252;-56
2023/03/02 10:59:30;;;;;;;23.53;16.20;;;;;;;;;;5061730;28;20234;-51
2023/03/02 11:02:01;;;;;;;22.03;14.73;;;;;;;;;;5055701;28;20238;-51
2023/03/02 11:04:27;;;;;;;18.57;14.13;;;;;;;;;;5065676;28;20226;-56
2023/03/02 11:06:55;;;;;;;24.27;13.00;;;;;;;;;;5065366;28;20314;-54
2023/03/02 11:09:22;;;;;;;18.97;14.03;;;;;;;;;;5071612;28;20420;-55
2023/03/02 11:11:49;;;;;;;21.20;13.37;;;;;;;;;;5072198;28;20309;-53
2023/03/02 11:14:16;;;;;;;15.30;12.40;;;;;;;;;;5074488;28;20744;-67
2023/03/02 11:16:43;;;;;;;17.10;12.83;;;;;;;;;;5074360;28;20249;-60
2023/03/02 11:19:13;;;;;;;22.17;13.57;;;;;;;;;;5068678;28;20240;-53
2023/03/02 11:21:41;;;;;;;18.33;13.07;;;;;;;;;;5067725;28;20256;-58
2023/03/02 11:24:12;;;;;;;20.27;13.47;;;;;;;;;;5071765;28;20233;-52
2023/03/02 11:26:43;;;;;;;21.43;14.13;;;;;;;;;;5069404;28;20229;-55
2023/03/02 11:29:14;;;;;;;18.47;13.27;;;;;;;;;;5068560;28;20233;-51
2023/03/02 11:31:42;;;;;;;18.73;13.83;;;;;;;;;;5069096;28;20314;-52
2023/03/02 11:34:16;;;;;;;16.93;12.20;;;;;;;;;;5069572;28;20227;-53
2023/03/02 11:36:45;;;;;;;20.53;14.47;;;;;;;;;;5058310;28;20325;-52
2023/03/02 11:39:15;;;;;;;21.93;13.53;;;;;;;;;;5054813;28;20700;-53
2023/03/02 11:41:42;;;;;;;17.87;12.50;;;;;;;;;;5059615;28;20743;-52
2023/03/02 11:44:13;;;;;;;16.17;12.63;;;;;;;;;;5059355;28;20221;-53
2023/03/02 11:46:40;;;;;;;17.73;13.37;;;;;;;;;;5066813;28;20223;-57
2023/03/02 11:49:12;;;;;;;14.70;11.90;;;;;;;;;;5064435;28;20257;-62
2023/03/02 11:51:41;;;;;;;16.87;13.70;;;;;;;;;;5068566;28;20309;-51
2023/03/02 11:54:15;;;;;;;20.87;13.43;;;;;;;;;;5069820;28;20329;-51
2023/03/02 11:56:43;;;;;;;18.73;12.67;;;;;;;;;;5061422;28;20237;-52
2023/03/02 11:59:13;;;;;;;15.60;12.03;;;;;;;;;;5070758;28;20258;-52
2023/03/02 12:01:39;;;;;;;19.03;13.93;;;;;;;;;;5064292;28;20305;-52
2023/03/02 12:04:07;;;;;;;18.83;12.83;;;;;;;;;;5061348;28;20238;-52
2023/03/02 12:06:37;;;;;;;18.23;13.63;;;;;;;;;;5068122;28;20230;-52
2023/03/02 12:09:08;;;;;;;15.63;12.67;;;;;;;;;;5064934;28;20223;-52
2023/03/02 12:11:37;;;;;;;17.20;12.43;;;;;;;;;;5070467;28;20318;-53
2023/03/02 12:14:05;;;;;;;15.80;11.60;;;;;;;;;;5067429;28;20331;-52
2023/03/02 12:16:35;;;;;;;15.17;10.47;;;;;;;;;;5071412;28;20300;-52
2023/03/02 12:19:11;;;;;;;18.90;13.13;;;;;;;;;;5064848;28;20310;-59
2023/03/02 12:21:39;;;;;;;15.50;12.07;;;;;;;;;;5058235;28;20234;-52
2023/03/02 12:24:06;;;;;;;16.67;11.47;;;;;;;;;;5061768;28;20671;-53
2023/03/02 12:26:34;;;;;;;15.40;13.20;;;;;;;;;;5062452;28;20234;-53
2023/03/02 12:29:01;;;;;;;15.03;11.77;;;;;;;;;;5063743;28;20235;-52
2023/03/02 12:31:40;;;;;;;17.50;12.50;;;;;;;;;;5063257;28;20327;-52
2023/03/02 12:34:20;;;;;;;14.90;12.00;;;;;;;;;;5060738;28;20233;-51
2023/03/02 12:36:46;;;;;;;20.53;12.77;;;;;;;;;;5067327;28;20227;-53
2023/03/02 12:39:21;;;;;;;16.13;12.33;;;;;;;;;;5060656;28;20244;-52
2023/03/02 12:42:12;;;;;;;16.77;12.10;;;;;;;;;;5063642;28;20235;-52
2023/03/02 12:44:47;;;;;;;15.30;11.70;;;;;;;;;;5057384;28;20658;-52
2023/03/02 12:47:20;;;;;;;15.13;11.83;;;;;;;;;;5063266;28;20254;-52
2023/03/02 12:49:48;;;;;;;14.97;11.50;;;;;;;;;;5055484;28;20880;-52
2023/03/02 12:52:28;;;;;;;15.03;11.77;;;;;;;;;;5062420;28;20239;-52
2023/03/02 12:55:02;;;;;;;13.43;10.43;;;;;;;;;;5064078;28;20227;-52
2023/03/02 12:57:28;;;;;;;17.93;11.97;;;;;;;;;;5054018;28;20228;-51
2023/03/02 12:59:55;;;;;;;14.13;11.20;;;;;;;;;;5063298;28;20235;-52
2023/03/02 13:02:24;;;;;;;15.13;10.57;;;;;;;;;;5057510;28;20558;-51
2023/03/02 13:04:55;;;;;;;15.93;13.40;;;;;;;;;;5057838;28;20311;-52
2023/03/02 13:07:24;;;;;;;14.80;10.97;;;;;;;;;;5053987;28;20231;-53
2023/03/02 13:09:50;;;;;;;12.93;10.30;;;;;;;;;;5061413;28;20314;-51
2023/03/02 13:12:18;;;;;;;18.13;12.07;;;;;;;;;;5061178;28;20266;-52
2023/03/02 13:14:47;;;;;;;14.90;11.17;;;;;;;;;;5062503;28;20235;-53
2023/03/02 13:17:20;;;;;;;14.50;11.33;;;;;;;;;;5060454;28;20239;-51
2023/03/02 13:19:49;;;;;;;20.47;10.97;;;;;;;;;;5061391;28;20727;-51
2023/03/02 13:22:17;;;;;;;16.93;12.53;;;;;;;;;;5063103;28;20242;-52
2023/03/02 13:24:49;;;;;;;18.37;12.00;;;;;;;;;;5064036;28;20317;-50
2023/03/02 13:27:17;;;;;;;15.57;12.17;;;;;;;;;;5063265;28;20227;-51
2023/03/02 13:29:44;;;;;;;15.70;11.10;;;;;;;;;;5063859;28;20265;-52
2023/03/02 13:32:15;;;;;;;12.77;10.00;;;;;;;;;;5056767;28;20237;-51
2023/03/02 13:34:45;;;;;;;12.47;9.63;;;;;;;;;;5060258;28;20238;-51
2023/03/02 13:37:37;;;;;;;12.57;10.10;;;;;;;;;;5056950;28;20223;-51
2023/03/02 13:40:06;;;;;;;15.60;9.70;;;;;;;;;;5040271;28;20736;-52
2023/03/02 13:42:36;;;;;;;14.17;10.20;;;;;;;;;;5060670;28;20766;-52
2023/03/02 13:45:19;;;;;;;13.37;10.40;;;;;;;;;;5053914;28;20239;-52
2023/03/02 13:47:45;;;;;;;15.87;11.40;;;;;;;;;;5059703;28;20230;-52
2023/03/02 13:50:16;;;;;;;12.87;10.33;;;;;;;;;;5060227;28;20238;-52
2023/03/02 13:52:43;;;;;;;16.40;9.87;;;;;;;;;;5057028;28;20326;-52
2023/03/02 13:55:14;;;;;;;14.70;10.50;;;;;;;;;;5059263;28;20261;-52
2023/03/02 13:57:41;;;;;;;12.27;9.90;;;;;;;;;;5058504;28;20298;-52
2023/03/02 14:00:11;;;;;;;12.43;10.60;;;;;;;;;;5059365;28;20238;-50
2023/03/02 14:02:37;;;;;;;14.37;10.80;;;;;;;;;;5060938;28;20798;-51
2023/03/02 14:05:05;;;;;;;11.63;10.43;;;;;;;;;;5061580;28;20285;-51
2023/03/02 14:07:32;;;;;;;11.13;9.43;;;;;;;;;;5060737;28;20231;-51
2023/03/02 14:09:58;;;;;;;12.90;11.13;;;;;;;;;;5060229;28;20235;-52
2023/03/02 14:12:27;;;;;;;13.20;11.37;;;;;;;;;;5059709;28;20244;-53
2023/03/02 14:14:55;;;;;;;12.10;9.93;;;;;;;;;;5057794;28;20602;-52
2023/03/02 14:17:23;;;;;;;13.67;9.93;;;;;;;;;;5061188;28;20236;-51
2023/03/02 14:19:51;;;;;;;11.87;10.07;;;;;;;;;;5063658;28;20306;-51
2023/03/02 14:22:18;;;;;;;13.83;11.13;;;;;;;;;;5060483;28;20709;-51